< < Back
Terminal Aerodrome Forecast


Current Version              Previous Versions:   1  2  3  4  5  6  7  8  9  

Terminal Aerodrome Forecast

459
FTUS42 KTAE 032320
TAFTLH
TAF
KTLH 032320Z 0400/0424 24005KT P6SM TS SCT040CB BKN250
      TEMPO 0400/0403 VRB10G20KT 3SM TSRA BKN015CB
     FM040300 27003KT P6SM BKN025
     FM041500 33012KT P6SM SCT040=

Latest METAR

073
SAUS80 KWBC 041100 RRA
MTRTLH
METAR KTLH 041053Z 31005KT 10SM SCT046 OVC055 21/18 A2981 RMK AO2 SLP093
T02110178


USA.gov is the U.S. government's official web portal to all federal, state and local government web resources and services.